Main page
METAR-TAF:

METAR-TAF

Airports :

Beja, Portugal

Beja Airbase

latitude: 38-04-40N, longitude: 007-55-57W, elevation: 193 m

Current weather observation

The report was made 26 minutes ago, at 20:00 UTC
Wind 3 kt from the North/Northeast
Temperature 7°C
Humidity 61%
Pressure 1030 hPa
Visibility 10 km or more
no clouds below 1500 m and no cumulonimbus

METAR: LPBJ 182000Z 03003KT CAVOK 07/M00 Q1030

Time: 20:26 (20:26 UTC)

Forecast

The report was made 3 hours and 25 minutes ago, at 17:01 UTC
Forecast valid from 18 at 18 UTC to 19 at 18 UTC
Wind 5 kt from the Northeast
Visibility 10 km or more
no clouds below 1500 m and no cumulonimbus

TAF: LPBJ 181701Z 1818/1918 04005KT CAVOK

Weather observations and forecasts of more than 4000 airports (METAR and TAF reports).

The available stations are represented by yellow and red dots on the map.

Hover mouse over dot to see the name of the station.

Then click to see weather observations and forecasts.

To change the map : click on the green buttons with a black cross to zoom in, on the green button with a dash to zoom out, or on the green arrows for adjacent maps.


METAR-TAF: